Gateway Endeavor — WDE2656 — position and weather

sailwx.info

Track history (hours):
 
Tides and Currents Weather Stations Pressure Air Temp Water Temp Dewpoint Dewpoint Depression Visibility Wind Speed Wind Dir Waves Ship Positions

Gateway Endeavor

Owner: Boston Harbor Cruises, Boston, MA. More information available from US FCC via Universal Licensing System and Coast Guard Vessel Documentation Center.

Last reported at 2018-Apr-26 07:30 UTC. Time now 2018-Apr-26 07:55 UTC.
Position N 42°24' W 070°39'.

Length 38 m; draft 3.4 m.

Type: Passenger vessel. MMSI: 367327910.

Date/timePositionNaut miles runAvg speedWind from/ knotsBaromVisibWave heightAir tempDewpointWater temp
2018-Apr-26 07:30N 42°24' W 070°39'0 0.0
2018-Apr-26 07:00N 42°24' W 070°39'0 0.0
2018-Apr-26 06:30N 42°24' W 070°39'0 0.0
2018-Apr-26 06:00N 42°24' W 070°39'0 0.0
2018-Apr-26 05:30N 42°24' W 070°39'0 0.0
2018-Apr-26 05:00N 42°24' W 070°39'0 0.0
2018-Apr-26 04:30N 42°24' W 070°39'0 0.0
2018-Apr-26 03:57N 42°24' W 070°39'0 0.0
2018-Apr-26 03:30N 42°24' W 070°39'0 0.0
2018-Apr-26 03:00N 42°24' W 070°39'0 0.0
2018-Apr-26 02:27N 42°24' W 070°39'0 0.0
2018-Apr-26 02:00N 42°24' W 070°39'0 0.0
2018-Apr-26 01:30N 42°24' W 070°39'0 0.0
2018-Apr-26 00:57N 42°24' W 070°39'0 0.0
2018-Apr-26 00:30N 42°24' W 070°39'0 0.0
2018-Apr-25 23:57N 42°24' W 070°39'0 0.0
2018-Apr-25 23:30N 42°24' W 070°39'0 0.1
2018-Apr-25 22:57N 42°24' W 070°39'0 0.0
2018-Apr-25 22:30N 42°24' W 070°39'0 0.0
2018-Apr-25 22:01N 42°24' W 070°39'0 0.0
2018-Apr-25 21:31N 42°24' W 070°39'0 0.0
2018-Apr-25 21:01N 42°24' W 070°39'0 0.0
2018-Apr-25 20:30N 42°24' W 070°39'0 0.0
2018-Apr-25 19:59N 42°24' W 070°39'0 0.0
2018-Apr-25 19:30N 42°24' W 070°39'0 0.0
2018-Apr-25 19:01N 42°24' W 070°39'0 0.0
2018-Apr-25 18:31N 42°24' W 070°39'0 0.0
2018-Apr-25 18:00N 42°24' W 070°39'0 0.0
2018-Apr-25 17:31N 42°24' W 070°39'1 2.8
2018-Apr-25 17:01N 42°23' W 070°40'5 9.4
2018-Apr-25 16:30N 42°22' W 070°47'5 9.4
2018-Apr-25 15:57N 42°21' W 070°54'4 9.2
2018-Apr-25 15:28N 42°20' W 070°59'4 7.8
2018-Apr-25 15:00N 42°23' W 071°03'0 0.7
2018-Apr-25 14:29N 42°23' W 071°03'0 0.0
2018-Apr-25 14:00N 42°23' W 071°03'0 0.0
2018-Apr-25 13:31N 42°23' W 071°03'0 0.0
2018-Apr-25 12:59N 42°23' W 071°03'0 0.0
2018-Apr-25 12:31N 42°23' W 071°03'1 2.4
2018-Apr-25 12:00N 42°22' W 071°02'0 0.2
2018-Apr-25 11:30N 42°22' W 071°02'1 1.8
2018-Apr-25 11:00N 42°22' W 071°03'0 0.9
2018-Apr-25 10:30N 42°23' W 071°03'0 0.0
2018-Apr-25 09:59N 42°23' W 071°03'1 2.6
2018-Apr-25 09:31N 42°22' W 071°03'4 8.6
2018-Apr-25 09:01N 42°20' W 070°57'5 9.5
2018-Apr-25 08:30N 42°23' W 070°52'5 9.8
2018-Apr-25 08:00N 42°23' W 070°45'5 9.6
2018-Apr-25 07:31N 42°24' W 070°39'0 0.1
2018-Apr-25 06:59N 42°24' W 070°39'0 0.0
2018-Apr-25 06:29N 42°24' W 070°39'0 0.0
2018-Apr-25 05:59N 42°24' W 070°39'0 0.1
2018-Apr-25 05:29N 42°24' W 070°39'0 0.0
2018-Apr-25 04:59N 42°24' W 070°39'0 0.0
2018-Apr-25 04:29N 42°24' W 070°39'0 0.0
2018-Apr-25 03:56N 42°24' W 070°39'0 0.0
2018-Apr-25 03:29N 42°24' W 070°39'0 0.0
2018-Apr-25 02:59N 42°24' W 070°39'0 0.0
2018-Apr-25 02:29N 42°24' W 070°39'0 0.0
2018-Apr-25 01:44N 42°24' W 070°39'0 0.0
2018-Apr-25 01:29N 42°24' W 070°39'0 0.0
2018-Apr-25 00:59N 42°24' W 070°39'0 0.0
2018-Apr-25 00:29N 42°24' W 070°39'0 0.0
2018-Apr-24 23:59N 42°24' W 070°39'0 0.0
2018-Apr-24 23:26N 42°24' W 070°39'0 0.0
2018-Apr-24 22:56N 42°24' W 070°39'0 0.0
2018-Apr-24 22:29N 42°24' W 070°39'0 0.0
2018-Apr-24 21:59N 42°24' W 070°39'0 0.0
2018-Apr-24 21:29N 42°24' W 070°39'0 0.0
2018-Apr-24 20:50N 42°24' W 070°39'0 0.0
2018-Apr-24 20:29N 42°24' W 070°39'0 0.0
2018-Apr-24 19:59N 42°24' W 070°39'0 0.0
2018-Apr-24 19:23N 42°24' W 070°39'0 0.0
2018-Apr-24 18:59N 42°24' W 070°39'0 0.0
2018-Apr-24 18:26N 42°24' W 070°39'0 0.0
2018-Apr-24 17:59N 42°24' W 070°39'0 0.0
2018-Apr-24 17:29N 42°24' W 070°39'0 0.0
2018-Apr-24 16:59N 42°24' W 070°39'0 0.0
2018-Apr-24 16:29N 42°24' W 070°39'0 0.0
2018-Apr-24 15:56N 42°24' W 070°39'0 0.0
2018-Apr-24 15:29N 42°24' W 070°39'0 0.0
2018-Apr-24 14:50N 42°24' W 070°39'0 0.0
2018-Apr-24 14:29N 42°24' W 070°39'0 0.0
2018-Apr-24 13:59N 42°24' W 070°39'0 0.1
2018-Apr-24 13:29N 42°24' W 070°39'0 0.0
2018-Apr-24 12:59N 42°24' W 070°39'0 0.0
2018-Apr-24 12:26N 42°24' W 070°39'0 0.0
2018-Apr-24 11:59N 42°24' W 070°39'0 0.0
2018-Apr-24 11:29N 42°24' W 070°39'0 0.0
2018-Apr-24 10:53N 42°24' W 070°39'0 0.0
2018-Apr-24 10:29N 42°24' W 070°39'0 0.1
2018-Apr-24 09:59N 42°24' W 070°39'0 0.1
2018-Apr-24 09:29N 42°24' W 070°39'0 0.0
2018-Apr-24 08:56N 42°24' W 070°39'0 0.1
2018-Apr-24 08:29N 42°24' W 070°39'0 0.0
2018-Apr-24 07:59N 42°24' W 070°38'0 0.0
2018-Apr-24 07:29N 42°24' W 070°39'0 0.0
2018-Apr-24 06:59N 42°24' W 070°39'0 0.0
2018-Apr-24 06:29N 42°24' W 070°39'0 0.0
2018-Apr-24 05:59N 42°24' W 070°39'0 0.0
2018-Apr-24 05:29N 42°24' W 070°39'0 0.0
2018-Apr-24 04:59N 42°24' W 070°39'0 0.0
2018-Apr-24 04:26N 42°24' W 070°39'0 0.0
2018-Apr-24 03:59N 42°24' W 070°39'0 0.0
2018-Apr-24 03:29N 42°24' W 070°39'0 0.0
2018-Apr-24 02:59N 42°24' W 070°39'0 0.0
2018-Apr-24 02:29N 42°24' W 070°39'0 0.0
2018-Apr-24 01:59N 42°24' W 070°39'0 0.0
2018-Apr-24 01:29N 42°24' W 070°39'0 0.0
2018-Apr-24 00:59N 42°24' W 070°39'0 0.1
2018-Apr-24 00:29N 42°24' W 070°39'0 0.0
2018-Apr-23 23:59N 42°24' W 070°39'0 0.0
2018-Apr-23 23:17N 42°24' W 070°39'0 0.0
2018-Apr-23 22:59N 42°24' W 070°39'0 0.1
2018-Apr-23 22:26N 42°24' W 070°39'0 0.0
2018-Apr-23 21:56N 42°24' W 070°39'0 0.0
2018-Apr-23 21:29N 42°24' W 070°39'0 0.1
2018-Apr-23 20:59N 42°24' W 070°39'0 0.0
2018-Apr-23 20:29N 42°24' W 070°39'0 0.0
2018-Apr-23 19:59N 42°24' W 070°39'0 0.0
2018-Apr-23 19:29N 42°24' W 070°39'0 0.0
2018-Apr-23 18:59N 42°24' W 070°39'0 0.0
2018-Apr-23 18:26N 42°24' W 070°39'0 0.0
2018-Apr-23 17:59N 42°24' W 070°39'0 0.0
2018-Apr-23 17:29N 42°24' W 070°39'0 0.0
2018-Apr-23 16:59N 42°24' W 070°39'0 0.0
2018-Apr-23 16:29N 42°24' W 070°39'0 0.0
2018-Apr-23 15:56N 42°24' W 070°39'0 0.0
2018-Apr-23 15:26N 42°24' W 070°39'0 0.0
2018-Apr-23 14:59N 42°24' W 070°39'0 0.0
2018-Apr-23 14:26N 42°24' W 070°39'0 0.0
2018-Apr-23 13:56N 42°24' W 070°39'0 0.0
2018-Apr-23 13:29N 42°24' W 070°39'0 0.1
2018-Apr-23 12:59N 42°24' W 070°39'0 0.1
2018-Apr-23 12:29N 42°24' W 070°39'0 0.1
2018-Apr-23 11:59N 42°24' W 070°39'0 0.1
2018-Apr-23 11:29N 42°24' W 070°39'0 0.0
2018-Apr-23 10:59N 42°24' W 070°39'0 0.0
2018-Apr-23 10:29N 42°24' W 070°39'0 0.0
2018-Apr-23 09:59N 42°24' W 070°39'0 0.0
2018-Apr-23 09:29N 42°24' W 070°39'0 0.0
2018-Apr-23 08:59N 42°24' W 070°39'0 0.0
2018-Apr-23 08:29N 42°24' W 070°39'0 0.1
2018-Apr-23 07:59N 42°24' W 070°39'0 0.0
2018-Apr-23 07:29N 42°24' W 070°39'0 0.0
2018-Apr-23 06:59N 42°24' W 070°39'0 0.0
2018-Apr-23 06:23N 42°24' W 070°39'0 0.1
2018-Apr-23 05:59N 42°24' W 070°39'0 0.1
2018-Apr-23 05:29N 42°24' W 070°39'0 0.1
2018-Apr-23 04:59N 42°24' W 070°38'0 0.1
2018-Apr-23 04:29N 42°24' W 070°38'0 0.1
2018-Apr-23 03:53N 42°24' W 070°38'0 0.1
2018-Apr-23 03:26N 42°24' W 070°38'0 0.1
2018-Apr-23 02:59N 42°24' W 070°38'0 0.1
2018-Apr-23 02:20N 42°24' W 070°38'0 0.1
2018-Apr-23 01:53N 42°24' W 070°38'0 0.1
2018-Apr-23 01:29N 42°24' W 070°39'0 0.0
2018-Apr-23 00:53N 42°24' W 070°39'0 0.0
2018-Apr-23 00:29N 42°24' W 070°39'0 0.0
2018-Apr-22 23:53N 42°24' W 070°39'0 0.0
2018-Apr-22 23:29N 42°24' W 070°39'0 0.0
2018-Apr-22 22:59N 42°24' W 070°39'0 0.0
2018-Apr-22 22:29N 42°24' W 070°39'0 0.0
2018-Apr-22 21:59N 42°24' W 070°39'0 0.1
2018-Apr-22 21:29N 42°24' W 070°39'0 0.1
2018-Apr-22 20:59N 42°24' W 070°39'0 0.0
2018-Apr-22 20:29N 42°24' W 070°39'0 0.0
2018-Apr-22 19:59N 42°24' W 070°39'0 0.0
2018-Apr-22 19:29N 42°24' W 070°39'0 0.0
2018-Apr-22 18:59N 42°24' W 070°39'0 0.0
2018-Apr-22 18:29N 42°24' W 070°39'0 0.1
2018-Apr-22 17:59N 42°24' W 070°39'0 0.1
2018-Apr-22 17:29N 42°24' W 070°39'0 0.1
2018-Apr-22 16:59N 42°24' W 070°39'0 0.2
2018-Apr-22 16:29N 42°24' W 070°39'0 0.1
2018-Apr-22 15:56N 42°24' W 070°38'0 0.1
2018-Apr-22 15:29N 42°24' W 070°38'0 0.0
2018-Apr-22 14:59N 42°24' W 070°38'0 0.1
2018-Apr-22 14:29N 42°24' W 070°38'0 0.1
2018-Apr-22 13:50N 42°24' W 070°38'0 0.0
2018-Apr-22 13:29N 42°24' W 070°38'0 0.0
2018-Apr-22 12:59N 42°24' W 070°38'0 0.0
2018-Apr-22 12:29N 42°24' W 070°38'0 0.0
2018-Apr-22 11:56N 42°24' W 070°38'0 0.0
2018-Apr-22 11:26N 42°24' W 070°38'0 0.0
2018-Apr-22 10:59N 42°24' W 070°38'0 0.0
2018-Apr-22 10:29N 42°24' W 070°38'0 0.0
2018-Apr-22 09:59N 42°24' W 070°38'0 0.0
2018-Apr-22 09:29N 42°24' W 070°38'0 0.0
2018-Apr-22 08:59N 42°24' W 070°38'0 0.0
2018-Apr-22 08:29N 42°24' W 070°38'0 0.1
2018-Apr-22 07:56N 42°24' W 070°39'0 0.0
2018-Apr-22 07:26N 42°24' W 070°39'0 0.0
2018-Apr-22 06:56N 42°24' W 070°39'0 0.0
2018-Apr-22 06:26N 42°24' W 070°39'0 0.0
2018-Apr-22 05:59N 42°24' W 070°38'0 0.0
2018-Apr-22 05:29N 42°24' W 070°38'0 0.0
2018-Apr-22 04:50N 42°24' W 070°38'0 0.0
2018-Apr-22 04:08N 42°24' W 070°38'0 0.0
2018-Apr-22 03:59N 42°24' W 070°38'0 0.2
2018-Apr-22 03:17N 42°24' W 070°38'0 0.1
2018-Apr-22 02:59N 42°24' W 070°38'0 0.1
2018-Apr-22 02:26N 42°24' W 070°38'0 0.0
2018-Apr-22 01:53N 42°24' W 070°38'0 0.0
2018-Apr-22 01:26N 42°24' W 070°39'0 0.0
2018-Apr-22 00:59N 42°24' W 070°39'0 0.0
2018-Apr-22 00:29N 42°24' W 070°39'0 0.0
2018-Apr-21 23:56N 42°24' W 070°39'0 0.0
2018-Apr-21 23:29N 42°24' W 070°39'0 0.0
2018-Apr-21 22:59N 42°24' W 070°39'0 0.0
2018-Apr-21 22:26N 42°24' W 070°39'0 0.0
2018-Apr-21 21:53N 42°24' W 070°39'0 0.1
2018-Apr-21 21:29N 42°24' W 070°39'0 0.1
2018-Apr-21 20:59N 42°24' W 070°39'0 0.1
2018-Apr-21 20:29N 42°24' W 070°39'0 0.0
2018-Apr-21 19:59N 42°24' W 070°39'0 0.0
2018-Apr-21 19:20N 42°24' W 070°39'0 0.1
2018-Apr-21 18:56N 42°24' W 070°39'0 0.1
2018-Apr-21 18:29N 42°24' W 070°39'0 0.2
2018-Apr-21 17:59N 42°24' W 070°39'0 0.0
2018-Apr-21 17:23N 42°24' W 070°39'0 0.0
2018-Apr-21 16:59N 42°24' W 070°39'0 0.0
2018-Apr-21 16:29N 42°24' W 070°39'0 0.1
2018-Apr-21 15:59N 42°24' W 070°39'0 0.1
2018-Apr-21 15:29N 42°24' W 070°38'0 0.8
2018-Apr-21 15:00N 42°24' W 070°38'0 0.2
2018-Apr-21 14:30N 42°24' W 070°38'0 0.3
2018-Apr-21 13:50N 42°24' W 070°38'0 0.0
2018-Apr-21 13:29N 42°24' W 070°38'0 0.0
2018-Apr-21 12:59N 42°24' W 070°38'0 0.0
2018-Apr-21 12:26N 42°24' W 070°38'0 0.0
2018-Apr-21 11:59N 42°24' W 070°38'0 0.0
2018-Apr-21 11:20N 42°24' W 070°38'0 0.0
2018-Apr-21 10:50N 42°24' W 070°38'0 0.0
2018-Apr-21 10:29N 42°24' W 070°38'0 0.0
2018-Apr-21 09:44N 42°24' W 070°38'0 0.0
2018-Apr-21 09:28N 42°24' W 070°38'0 0.0
2018-Apr-21 08:59N 42°24' W 070°38'0 0.0
2018-Apr-21 08:04N 42°24' W 070°38'0 0.0
2018-Apr-21 07:56N 42°24' W 070°38'0 0.1
2018-Apr-21 07:26N 42°24' W 070°38'0 0.0
2018-Apr-21 06:50N 42°24' W 070°38'0 0.0
2018-Apr-21 06:26N 42°24' W 070°38'0 0.0
2018-Apr-21 05:44N 42°24' W 070°39'0 0.0
2018-Apr-21 05:29N 42°24' W 070°39'0 0.0
2018-Apr-21 04:59N 42°24' W 070°38'0 0.0
2018-Apr-21 04:26N 42°24' W 070°38'0 0.0
2018-Apr-21 03:58N 42°24' W 070°38'0 0.0
2018-Apr-21 03:26N 42°24' W 070°38'0 0.0
2018-Apr-21 02:56N 42°24' W 070°38'0 0.0
2018-Apr-21 02:29N 42°24' W 070°38'0 0.0
2018-Apr-21 01:58N 42°24' W 070°38'0 0.0
2018-Apr-21 01:29N 42°24' W 070°38'0 0.0
2018-Apr-21 00:55N 42°24' W 070°38'0 0.0
2018-Apr-21 00:26N 42°24' W 070°38'0 0.0
2018-Apr-20 23:59N 42°24' W 070°38'0 0.0
2018-Apr-20 23:20N 42°24' W 070°38'0 0.0
2018-Apr-20 22:44N 42°24' W 070°38'0 0.0
2018-Apr-20 22:26N 42°24' W 070°38'0 0.0
2018-Apr-20 21:20N 42°24' W 070°38'0 0.1
2018-Apr-20 20:59N 42°24' W 070°38'0 0.0
2018-Apr-20 20:20N 42°24' W 070°39'0 0.0
2018-Apr-20 19:59N 42°24' W 070°38'0 0.0
2018-Apr-20 18:11N 42°24' W 070°38'0 0.0
2018-Apr-20 17:44N 42°24' W 070°38'0 0.0
2018-Apr-20 17:17N 42°24' W 070°38'0 0.0
2018-Apr-20 16:59N 42°24' W 070°38'0 0.0
2018-Apr-20 15:32N 42°24' W 070°38'0 0.0
2018-Apr-20 15:26N 42°24' W 070°38'0 0.0
2018-Apr-20 14:58N 42°24' W 070°38'0 0.0
2018-Apr-20 14:26N 42°24' W 070°38'0 0.0
2018-Apr-20 13:56N 42°24' W 070°38'0 0.0
2018-Apr-20 13:29N 42°24' W 070°38'0 0.0
2018-Apr-20 12:50N 42°24' W 070°38'0 0.0
2018-Apr-20 12:29N 42°24' W 070°38'0 0.0
2018-Apr-20 11:59N 42°24' W 070°38'0 0.0
2018-Apr-20 11:26N 42°24' W 070°38'0 0.0
2018-Apr-20 10:53N 42°24' W 070°38'0 0.0
2018-Apr-20 10:29N 42°24' W 070°38'0 0.0
2018-Apr-20 09:59N 42°24' W 070°38'0 0.0
2018-Apr-20 09:29N 42°24' W 070°38'0 0.0
2018-Apr-20 08:56N 42°24' W 070°38'0 0.0
2018-Apr-20 08:29N 42°24' W 070°38'0 0.0
2018-Apr-20 07:59N 42°24' W 070°38'0 0.0
2018-Apr-20 07:26N 42°24' W 070°38'0 0.0
2018-Apr-20 06:59N 42°24' W 070°38'0 0.0
2018-Apr-20 06:29N 42°24' W 070°38'0 0.0
2018-Apr-20 05:59N 42°24' W 070°38'0 0.0
2018-Apr-20 05:26N 42°24' W 070°38'0 0.0
2018-Apr-20 04:59N 42°24' W 070°39'0 0.0
2018-Apr-20 04:26N 42°24' W 070°39'0 0.0
2018-Apr-20 03:59N 42°24' W 070°38'0 0.0
2018-Apr-20 03:26N 42°24' W 070°38'0 0.0
2018-Apr-20 02:56N 42°24' W 070°38'0 0.0
2018-Apr-20 02:20N 42°24' W 070°38'0 0.1
2018-Apr-20 01:59N 42°24' W 070°38'0 0.1
2018-Apr-20 01:29N 42°24' W 070°38'0 0.0
2018-Apr-20 00:44N 42°24' W 070°38'0 0.0
2018-Apr-20 00:29N 42°24' W 070°38'0 0.0
2018-Apr-19 23:56N 42°24' W 070°38'0 0.0
2018-Apr-19 23:25N 42°24' W 070°38'0 0.1
2018-Apr-19 22:56N 42°24' W 070°38'0 0.0
2018-Apr-19 22:26N 42°24' W 070°38'0 0.0
2018-Apr-19 21:59N 42°24' W 070°38'0 0.0
2018-Apr-19 21:26N 42°24' W 070°38'0 0.2
2018-Apr-19 20:50N 42°24' W 070°38'0 0.2
2018-Apr-19 20:26N 42°24' W 070°39'0 0.1
2018-Apr-19 19:59N 42°24' W 070°39'0 0.0
2018-Apr-19 19:26N 42°24' W 070°39'0 0.0
2018-Apr-19 18:56N 42°24' W 070°39'0 0.0
2018-Apr-19 18:14N 42°24' W 070°39'0 0.0
2018-Apr-19 17:56N 42°24' W 070°39'0 0.0
2018-Apr-19 17:17N 42°24' W 070°39'0 0.0
2018-Apr-19 16:56N 42°24' W 070°39'0 0.0
2018-Apr-19 16:26N 42°24' W 070°39'0 0.1
2018-Apr-19 15:56N 42°24' W 070°39'0 0.1
2018-Apr-19 15:26N 42°24' W 070°38'0 0.1
2018-Apr-19 14:56N 42°24' W 070°38'0 0.1
2018-Apr-19 14:29N 42°24' W 070°38'0 0.0
2018-Apr-19 13:56N 42°24' W 070°38'0 0.0
2018-Apr-19 13:29N 42°24' W 070°38'0 0.2
2018-Apr-19 12:59N 42°24' W 070°38'0 0.1
2018-Apr-19 12:29N 42°24' W 070°38'0 0.0
2018-Apr-19 11:59N 42°24' W 070°38'0 0.1
2018-Apr-19 11:26N 42°24' W 070°38'0 0.1
2018-Apr-19 10:55N 42°24' W 070°38'0 0.1
2018-Apr-19 10:25N 42°24' W 070°38'0 0.0
2018-Apr-19 09:59N 42°24' W 070°38'0 0.0
2018-Apr-19 09:29N 42°24' W 070°38'0 0.0
2018-Apr-19 08:50N 42°24' W 070°38'0 0.0
2018-Apr-19 08:29N 42°24' W 070°38'0 0.0
2018-Apr-19 07:53N 42°24' W 070°38'0 0.2
2018-Apr-19 07:29N 42°24' W 070°38'0 0.1
2018-Apr-19 06:59N 42°24' W 070°38'0 0.0
2018-Apr-19 06:26N 42°24' W 070°38'0 0.1
2018-Apr-19 05:56N 42°24' W 070°38'0 0.1
2018-Apr-19 05:26N 42°24' W 070°38'0 0.0
2018-Apr-19 04:56N 42°24' W 070°38'0 0.0
2018-Apr-19 04:29N 42°24' W 070°38'0 0.1
2018-Apr-19 03:56N 42°24' W 070°38'0 0.0
2018-Apr-19 03:26N 42°24' W 070°38'0 0.0
2018-Apr-19 02:59N 42°24' W 070°38'0 0.0
2018-Apr-19 02:26N 42°24' W 070°38'0 0.0
2018-Apr-19 01:56N 42°24' W 070°38'0 0.0
2018-Apr-19 01:29N 42°24' W 070°38'0 0.0
2018-Apr-19 00:56N 42°24' W 070°38'0 0.0
2018-Apr-19 00:26N 42°24' W 070°38'0 0.1
2018-Apr-18 23:59N 42°24' W 070°38'0 0.0
2018-Apr-18 23:29N 42°24' W 070°38'0 0.0
2018-Apr-18 22:59N 42°24' W 070°38'0 0.0
2018-Apr-18 22:26N 42°24' W 070°38'0 0.0
2018-Apr-18 21:59N 42°24' W 070°38'0 0.5
2018-Apr-18 21:30N 42°24' W 070°38'0 0.6
2018-Apr-18 21:01N 42°24' W 070°38'0 0.3
2018-Apr-18 20:30N 42°24' W 070°38'1 1.7
2018-Apr-18 20:00N 42°25' W 070°38'0 0.9
2018-Apr-18 19:30N 42°24' W 070°38'0 0.8
2018-Apr-18 19:01N 42°24' W 070°38'1 1.1
2018-Apr-18 18:30N 42°24' W 070°38'1 2.7
2018-Apr-18 18:00N 42°24' W 070°39'5 9.7
2018-Apr-18 17:30N 42°24' W 070°46'5 8.8
2018-Apr-18 16:59N 42°23' W 070°52'5 9.6
2018-Apr-18 16:29N 42°20' W 070°57'4 8.1
2018-Apr-18 16:00N 42°21' W 071°02'1 2.6
2018-Apr-18 15:26N 42°23' W 071°03'0 0.0
2018-Apr-18 14:59N 42°23' W 071°03'0 0.0
2018-Apr-18 14:28N 42°23' W 071°03'0 0.0
2018-Apr-18 13:59N 42°23' W 071°03'0 0.0
2018-Apr-18 13:28N 42°23' W 071°03'0 0.0
2018-Apr-18 12:59N 42°23' W 071°03'0 0.0
2018-Apr-18 12:25N 42°23' W 071°03'0 0.0
2018-Apr-18 11:59N 42°23' W 071°03'0 0.0
2018-Apr-18 11:29N 42°23' W 071°03'0 0.0
2018-Apr-18 10:58N 42°23' W 071°03'0 0.0
2018-Apr-18 10:25N 42°23' W 071°03'0 0.0
2018-Apr-18 10:00N 42°23' W 071°03'0 0.0
2018-Apr-18 09:30N 42°23' W 071°03'0 0.0
2018-Apr-18 09:00N 42°23' W 071°03'0 0.0
2018-Apr-18 08:29N 42°23' W 071°03'0 0.0
2018-Apr-18 07:58N 42°23' W 071°03'0 0.0
2018-Apr-18 07:28N 42°23' W 071°03'0 0.0
2018-Apr-18 06:58N 42°23' W 071°03'0 0.0
2018-Apr-18 06:30N 42°23' W 071°03'0 0.0
2018-Apr-18 05:57N 42°23' W 071°03'0 0.0
2018-Apr-18 05:27N 42°23' W 071°03'0 0.0
2018-Apr-18 04:58N 42°23' W 071°03'0 0.0
2018-Apr-18 04:28N 42°23' W 071°03'0 0.0
2018-Apr-18 03:59N 42°23' W 071°03'0 0.0
2018-Apr-18 03:28N 42°23' W 071°03'0 0.0
2018-Apr-18 03:00N 42°23' W 071°03'0 0.0
2018-Apr-18 02:29N 42°23' W 071°03'0 0.0
2018-Apr-18 01:58N 42°23' W 071°03'0 0.0
2018-Apr-18 01:28N 42°23' W 071°03'0 0.0
2018-Apr-18 00:58N 42°23' W 071°03'0 0.0
2018-Apr-18 00:28N 42°23' W 071°03'0 0.0
2018-Apr-17 23:59N 42°23' W 071°03'0 0.0
2018-Apr-17 23:28N 42°23' W 071°03'0 0.0
2018-Apr-17 22:56N 42°23' W 071°03'0 0.0
2018-Apr-17 22:28N 42°23' W 071°03'0 0.0
2018-Apr-17 21:59N 42°23' W 071°03'0 0.0
2018-Apr-17 21:26N 42°23' W 071°03'0 0.0
2018-Apr-17 20:58N 42°23' W 071°03'0 0.0
2018-Apr-17 20:29N 42°23' W 071°03'0 0.0
2018-Apr-17 19:58N 42°23' W 071°03'0 0.0
2018-Apr-17 19:29N 42°23' W 071°03'0 0.1
2018-Apr-17 18:59N 42°23' W 071°03'0 0.1
2018-Apr-17 18:28N 42°23' W 071°03'0 0.0
2018-Apr-17 17:59N 42°23' W 071°03'0 0.0
2018-Apr-17 17:29N 42°23' W 071°03'0 0.0
2018-Apr-17 16:59N 42°23' W 071°03'0 0.0
2018-Apr-17 16:28N 42°23' W 071°03'0 0.0
2018-Apr-17 15:58N 42°23' W 071°03'0 0.0
2018-Apr-17 15:30N 42°23' W 071°03'0 0.0
2018-Apr-17 14:59N 42°23' W 071°03'0 0.0
2018-Apr-17 14:28N 42°23' W 071°03'0 0.0
2018-Apr-17 13:55N 42°23' W 071°03'0 0.0
2018-Apr-17 13:26N 42°23' W 071°03'0 0.0
2018-Apr-17 12:58N 42°23' W 071°03'0 0.0
2018-Apr-17 12:29N 42°23' W 071°03'0 0.0
2018-Apr-17 11:58N 42°23' W 071°03'0 0.0
2018-Apr-17 11:26N 42°23' W 071°03'0 0.0
2018-Apr-17 10:59N 42°23' W 071°03'0 0.0
2018-Apr-17 10:28N 42°23' W 071°03'0 0.0
2018-Apr-17 09:58N 42°23' W 071°03'0 0.0
2018-Apr-17 09:28N 42°23' W 071°03'0 0.0
2018-Apr-17 08:58N 42°23' W 071°03'0 0.0
2018-Apr-17 08:29N 42°23' W 071°03'0 0.0
2018-Apr-17 07:59N 42°23' W 071°03'0 0.0
2018-Apr-17 07:28N 42°23' W 071°03'0 0.0
2018-Apr-17 06:58N 42°23' W 071°03'0 0.0
2018-Apr-17 06:28N 42°23' W 071°03'0 0.0
2018-Apr-17 06:00N 42°23' W 071°03'0 0.0
2018-Apr-17 05:29N 42°23' W 071°03'0 0.0
2018-Apr-17 04:59N 42°23' W 071°03'0 0.0
2018-Apr-17 04:28N 42°23' W 071°03'0 0.0
2018-Apr-17 03:58N 42°23' W 071°03'0 0.0
2018-Apr-17 03:28N 42°23' W 071°03'0 0.0
2018-Apr-17 02:58N 42°23' W 071°03'0 0.0
2018-Apr-17 02:28N 42°23' W 071°03'0 0.0
2018-Apr-17 01:58N 42°23' W 071°03'0 0.0
2018-Apr-17 01:28N 42°23' W 071°03'0 0.0
2018-Apr-17 00:58N 42°23' W 071°03'0 0.0
2018-Apr-17 00:28N 42°23' W 071°03'0 0.0
2018-Apr-16 23:58N 42°23' W 071°03'0 0.0
2018-Apr-16 23:28N 42°23' W 071°03'0 0.0
2018-Apr-16 22:58N 42°23' W 071°03'0 0.0
2018-Apr-16 22:28N 42°23' W 071°03'0 0.0
2018-Apr-16 21:58N 42°23' W 071°03'0 0.0
2018-Apr-16 21:28N 42°23' W 071°03'0 0.0
2018-Apr-16 20:58N 42°23' W 071°03'0 0.0
2018-Apr-16 20:28N 42°23' W 071°03'0 0.0
2018-Apr-16 19:58N 42°23' W 071°03'0 0.0
2018-Apr-16 19:29N 42°23' W 071°03'0 0.0
2018-Apr-16 18:58N 42°23' W 071°03'0 0.0
2018-Apr-16 18:28N 42°23' W 071°03'0 0.0
2018-Apr-16 17:58N 42°23' W 071°03'0 0.0
2018-Apr-16 17:28N 42°23' W 071°03'0 0.0
2018-Apr-16 16:58N 42°23' W 071°03'0 0.0
2018-Apr-16 16:28N 42°23' W 071°03'0 0.0
2018-Apr-16 15:58N 42°23' W 071°03'0 0.0
2018-Apr-16 15:28N 42°23' W 071°03'0 0.0
2018-Apr-16 14:59N 42°23' W 071°03'0 0.0
2018-Apr-16 14:28N 42°23' W 071°03'0 0.0
2018-Apr-16 13:58N 42°23' W 071°03'0 0.0
2018-Apr-16 13:28N 42°23' W 071°03'0 0.0
2018-Apr-16 12:58N 42°23' W 071°03'0 0.0
2018-Apr-16 12:28N 42°23' W 071°03'0 0.0
2018-Apr-16 11:59N 42°23' W 071°03'0 0.0
2018-Apr-16 11:28N 42°23' W 071°03'0 0.0
2018-Apr-16 10:59N 42°23' W 071°03'0 0.0
2018-Apr-16 10:29N 42°23' W 071°03'0 0.0
2018-Apr-16 09:58N 42°23' W 071°03'0 0.0
2018-Apr-16 09:29N 42°23' W 071°03'0 0.0
2018-Apr-16 08:59N 42°23' W 071°03'0 0.0
2018-Apr-16 08:29N 42°23' W 071°03'0 0.0
2018-Apr-16 07:59N 42°23' W 071°03'  
Track history (hours):
 
Tides and Currents Weather Stations Pressure Air Temp Water Temp Dewpoint Dewpoint Depression Visibility Wind Speed Wind Dir Waves Ship Positions

Gateway Endeavor

Owner: Boston Harbor Cruises, Boston, MA. More information available from US FCC via Universal Licensing System and Coast Guard Vessel Documentation Center.

Last reported at 2018-Apr-26 07:30 UTC. Time now 2018-Apr-26 07:55 UTC.
Position N 42°24' W 070°39'.

Length 38 m; draft 3.4 m.

Type: Passenger vessel. MMSI: 367327910.

Date/timePositionNaut miles runAvg speedWind from/ knotsBaromVisibWave heightAir tempDewpointWater temp
2018-Apr-26 07:30N 42°24' W 070°39'0 0.0
2018-Apr-26 07:00N 42°24' W 070°39'0 0.0
2018-Apr-26 06:30N 42°24' W 070°39'0 0.0
2018-Apr-26 06:00N 42°24' W 070°39'0 0.0
2018-Apr-26 05:30N 42°24' W 070°39'0 0.0
2018-Apr-26 05:00N 42°24' W 070°39'0 0.0
2018-Apr-26 04:30N 42°24' W 070°39'0 0.0
2018-Apr-26 03:57N 42°24' W 070°39'0 0.0
2018-Apr-26 03:30N 42°24' W 070°39'0 0.0
2018-Apr-26 03:00N 42°24' W 070°39'0 0.0
2018-Apr-26 02:27N 42°24' W 070°39'0 0.0
2018-Apr-26 02:00N 42°24' W 070°39'0 0.0
2018-Apr-26 01:30N 42°24' W 070°39'0 0.0
2018-Apr-26 00:57N 42°24' W 070°39'0 0.0
2018-Apr-26 00:30N 42°24' W 070°39'0 0.0
2018-Apr-25 23:57N 42°24' W 070°39'0 0.0
2018-Apr-25 23:30N 42°24' W 070°39'0 0.1
2018-Apr-25 22:57N 42°24' W 070°39'0 0.0
2018-Apr-25 22:30N 42°24' W 070°39'0 0.0
2018-Apr-25 22:01N 42°24' W 070°39'0 0.0
2018-Apr-25 21:31N 42°24' W 070°39'0 0.0
2018-Apr-25 21:01N 42°24' W 070°39'0 0.0
2018-Apr-25 20:30N 42°24' W 070°39'0 0.0
2018-Apr-25 19:59N 42°24' W 070°39'0 0.0
2018-Apr-25 19:30N 42°24' W 070°39'0 0.0
2018-Apr-25 19:01N 42°24' W 070°39'0 0.0
2018-Apr-25 18:31N 42°24' W 070°39'0 0.0
2018-Apr-25 18:00N 42°24' W 070°39'0 0.0
2018-Apr-25 17:31N 42°24' W 070°39'1 2.8
2018-Apr-25 17:01N 42°23' W 070°40'5 9.4
2018-Apr-25 16:30N 42°22' W 070°47'5 9.4
2018-Apr-25 15:57N 42°21' W 070°54'4 9.2
2018-Apr-25 15:28N 42°20' W 070°59'4 7.8
2018-Apr-25 15:00N 42°23' W 071°03'0 0.7
2018-Apr-25 14:29N 42°23' W 071°03'0 0.0
2018-Apr-25 14:00N 42°23' W 071°03'0 0.0
2018-Apr-25 13:31N 42°23' W 071°03'0 0.0
2018-Apr-25 12:59N 42°23' W 071°03'0 0.0
2018-Apr-25 12:31N 42°23' W 071°03'1 2.4
2018-Apr-25 12:00N 42°22' W 071°02'0 0.2
2018-Apr-25 11:30N 42°22' W 071°02'1 1.8
2018-Apr-25 11:00N 42°22' W 071°03'0 0.9
2018-Apr-25 10:30N 42°23' W 071°03'0 0.0
2018-Apr-25 09:59N 42°23' W 071°03'1 2.6
2018-Apr-25 09:31N 42°22' W 071°03'4 8.6
2018-Apr-25 09:01N 42°20' W 070°57'5 9.5
2018-Apr-25 08:30N 42°23' W 070°52'5 9.8
2018-Apr-25 08:00N 42°23' W 070°45'5 9.6
2018-Apr-25 07:31N 42°24' W 070°39'0 0.1
2018-Apr-25 06:59N 42°24' W 070°39'0 0.0
2018-Apr-25 06:29N 42°24' W 070°39'0 0.0
2018-Apr-25 05:59N 42°24' W 070°39'0 0.1
2018-Apr-25 05:29N 42°24' W 070°39'0 0.0
2018-Apr-25 04:59N 42°24' W 070°39'0 0.0
2018-Apr-25 04:29N 42°24' W 070°39'0 0.0
2018-Apr-25 03:56N 42°24' W 070°39'0 0.0
2018-Apr-25 03:29N 42°24' W 070°39'0 0.0
2018-Apr-25 02:59N 42°24' W 070°39'0 0.0
2018-Apr-25 02:29N 42°24' W 070°39'0 0.0
2018-Apr-25 01:44N 42°24' W 070°39'0 0.0
2018-Apr-25 01:29N 42°24' W 070°39'0 0.0
2018-Apr-25 00:59N 42°24' W 070°39'0 0.0
2018-Apr-25 00:29N 42°24' W 070°39'0 0.0
2018-Apr-24 23:59N 42°24' W 070°39'0 0.0
2018-Apr-24 23:26N 42°24' W 070°39'0 0.0
2018-Apr-24 22:56N 42°24' W 070°39'0 0.0
2018-Apr-24 22:29N 42°24' W 070°39'0 0.0
2018-Apr-24 21:59N 42°24' W 070°39'0 0.0
2018-Apr-24 21:29N 42°24' W 070°39'0 0.0
2018-Apr-24 20:50N 42°24' W 070°39'0 0.0
2018-Apr-24 20:29N 42°24' W 070°39'0 0.0
2018-Apr-24 19:59N 42°24' W 070°39'0 0.0
2018-Apr-24 19:23N 42°24' W 070°39'0 0.0
2018-Apr-24 18:59N 42°24' W 070°39'0 0.0
2018-Apr-24 18:26N 42°24' W 070°39'0 0.0
2018-Apr-24 17:59N 42°24' W 070°39'0 0.0
2018-Apr-24 17:29N 42°24' W 070°39'0 0.0
2018-Apr-24 16:59N 42°24' W 070°39'0 0.0
2018-Apr-24 16:29N 42°24' W 070°39'0 0.0
2018-Apr-24 15:56N 42°24' W 070°39'0 0.0
2018-Apr-24 15:29N 42°24' W 070°39'0 0.0
2018-Apr-24 14:50N 42°24' W 070°39'0 0.0
2018-Apr-24 14:29N 42°24' W 070°39'0 0.0
2018-Apr-24 13:59N 42°24' W 070°39'0 0.1
2018-Apr-24 13:29N 42°24' W 070°39'0 0.0
2018-Apr-24 12:59N 42°24' W 070°39'0 0.0
2018-Apr-24 12:26N 42°24' W 070°39'0 0.0
2018-Apr-24 11:59N 42°24' W 070°39'0 0.0
2018-Apr-24 11:29N 42°24' W 070°39'0 0.0
2018-Apr-24 10:53N 42°24' W 070°39'0 0.0
2018-Apr-24 10:29N 42°24' W 070°39'0 0.1
2018-Apr-24 09:59N 42°24' W 070°39'0 0.1
2018-Apr-24 09:29N 42°24' W 070°39'0 0.0
2018-Apr-24 08:56N 42°24' W 070°39'0 0.1
2018-Apr-24 08:29N 42°24' W 070°39'0 0.0
2018-Apr-24 07:59N 42°24' W 070°38'0 0.0
2018-Apr-24 07:29N 42°24' W 070°39'0 0.0
2018-Apr-24 06:59N 42°24' W 070°39'0 0.0
2018-Apr-24 06:29N 42°24' W 070°39'0 0.0
2018-Apr-24 05:59N 42°24' W 070°39'0 0.0
2018-Apr-24 05:29N 42°24' W 070°39'0 0.0
2018-Apr-24 04:59N 42°24' W 070°39'0 0.0
2018-Apr-24 04:26N 42°24' W 070°39'0 0.0
2018-Apr-24 03:59N 42°24' W 070°39'0 0.0
2018-Apr-24 03:29N 42°24' W 070°39'0 0.0
2018-Apr-24 02:59N 42°24' W 070°39'0 0.0
2018-Apr-24 02:29N 42°24' W 070°39'0 0.0
2018-Apr-24 01:59N 42°24' W 070°39'0 0.0
2018-Apr-24 01:29N 42°24' W 070°39'0 0.0
2018-Apr-24 00:59N 42°24' W 070°39'0 0.1
2018-Apr-24 00:29N 42°24' W 070°39'0 0.0
2018-Apr-23 23:59N 42°24' W 070°39'0 0.0
2018-Apr-23 23:17N 42°24' W 070°39'0 0.0
2018-Apr-23 22:59N 42°24' W 070°39'0 0.1
2018-Apr-23 22:26N 42°24' W 070°39'0 0.0
2018-Apr-23 21:56N 42°24' W 070°39'0 0.0
2018-Apr-23 21:29N 42°24' W 070°39'0 0.1
2018-Apr-23 20:59N 42°24' W 070°39'0 0.0
2018-Apr-23 20:29N 42°24' W 070°39'0 0.0
2018-Apr-23 19:59N 42°24' W 070°39'0 0.0
2018-Apr-23 19:29N 42°24' W 070°39'0 0.0
2018-Apr-23 18:59N 42°24' W 070°39'0 0.0
2018-Apr-23 18:26N 42°24' W 070°39'0 0.0
2018-Apr-23 17:59N 42°24' W 070°39'0 0.0
2018-Apr-23 17:29N 42°24' W 070°39'0 0.0
2018-Apr-23 16:59N 42°24' W 070°39'0 0.0
2018-Apr-23 16:29N 42°24' W 070°39'0 0.0
2018-Apr-23 15:56N 42°24' W 070°39'0 0.0
2018-Apr-23 15:26N 42°24' W 070°39'0 0.0
2018-Apr-23 14:59N 42°24' W 070°39'0 0.0
2018-Apr-23 14:26N 42°24' W 070°39'0 0.0
2018-Apr-23 13:56N 42°24' W 070°39'0 0.0
2018-Apr-23 13:29N 42°24' W 070°39'0 0.1
2018-Apr-23 12:59N 42°24' W 070°39'0 0.1
2018-Apr-23 12:29N 42°24' W 070°39'0 0.1
2018-Apr-23 11:59N 42°24' W 070°39'0 0.1
2018-Apr-23 11:29N 42°24' W 070°39'0 0.0
2018-Apr-23 10:59N 42°24' W 070°39'0 0.0
2018-Apr-23 10:29N 42°24' W 070°39'0 0.0
2018-Apr-23 09:59N 42°24' W 070°39'0 0.0
2018-Apr-23 09:29N 42°24' W 070°39'0 0.0
2018-Apr-23 08:59N 42°24' W 070°39'0 0.0
2018-Apr-23 08:29N 42°24' W 070°39'0 0.1
2018-Apr-23 07:59N 42°24' W 070°39'0 0.0
2018-Apr-23 07:29N 42°24' W 070°39'0 0.0
2018-Apr-23 06:59N 42°24' W 070°39'0 0.0
2018-Apr-23 06:23N 42°24' W 070°39'0 0.1
2018-Apr-23 05:59N 42°24' W 070°39'0 0.1
2018-Apr-23 05:29N 42°24' W 070°39'0 0.1
2018-Apr-23 04:59N 42°24' W 070°38'0 0.1
2018-Apr-23 04:29N 42°24' W 070°38'0 0.1
2018-Apr-23 03:53N 42°24' W 070°38'0 0.1
2018-Apr-23 03:26N 42°24' W 070°38'0 0.1
2018-Apr-23 02:59N 42°24' W 070°38'0 0.1
2018-Apr-23 02:20N 42°24' W 070°38'0 0.1
2018-Apr-23 01:53N 42°24' W 070°38'0 0.1
2018-Apr-23 01:29N 42°24' W 070°39'0 0.0
2018-Apr-23 00:53N 42°24' W 070°39'0 0.0
2018-Apr-23 00:29N 42°24' W 070°39'0 0.0
2018-Apr-22 23:53N 42°24' W 070°39'0 0.0
2018-Apr-22 23:29N 42°24' W 070°39'0 0.0
2018-Apr-22 22:59N 42°24' W 070°39'0 0.0
2018-Apr-22 22:29N 42°24' W 070°39'0 0.0
2018-Apr-22 21:59N 42°24' W 070°39'0 0.1
2018-Apr-22 21:29N 42°24' W 070°39'0 0.1
2018-Apr-22 20:59N 42°24' W 070°39'0 0.0
2018-Apr-22 20:29N 42°24' W 070°39'0 0.0
2018-Apr-22 19:59N 42°24' W 070°39'0 0.0
2018-Apr-22 19:29N 42°24' W 070°39'0 0.0
2018-Apr-22 18:59N 42°24' W 070°39'0 0.0
2018-Apr-22 18:29N 42°24' W 070°39'0 0.1
2018-Apr-22 17:59N 42°24' W 070°39'0 0.1
2018-Apr-22 17:29N 42°24' W 070°39'0 0.1
2018-Apr-22 16:59N 42°24' W 070°39'0 0.2
2018-Apr-22 16:29N 42°24' W 070°39'0 0.1
2018-Apr-22 15:56N 42°24' W 070°38'0 0.1
2018-Apr-22 15:29N 42°24' W 070°38'0 0.0
2018-Apr-22 14:59N 42°24' W 070°38'0 0.1
2018-Apr-22 14:29N 42°24' W 070°38'0 0.1
2018-Apr-22 13:50N 42°24' W 070°38'0 0.0
2018-Apr-22 13:29N 42°24' W 070°38'0 0.0
2018-Apr-22 12:59N 42°24' W 070°38'0 0.0
2018-Apr-22 12:29N 42°24' W 070°38'0 0.0
2018-Apr-22 11:56N 42°24' W 070°38'0 0.0
2018-Apr-22 11:26N 42°24' W 070°38'0 0.0
2018-Apr-22 10:59N 42°24' W 070°38'0 0.0
2018-Apr-22 10:29N 42°24' W 070°38'0 0.0
2018-Apr-22 09:59N 42°24' W 070°38'0 0.0
2018-Apr-22 09:29N 42°24' W 070°38'0 0.0
2018-Apr-22 08:59N 42°24' W 070°38'0 0.0
2018-Apr-22 08:29N 42°24' W 070°38'0 0.1
2018-Apr-22 07:56N 42°24' W 070°39'0 0.0
2018-Apr-22 07:26N 42°24' W 070°39'0 0.0
2018-Apr-22 06:56N 42°24' W 070°39'0 0.0
2018-Apr-22 06:26N 42°24' W 070°39'0 0.0
2018-Apr-22 05:59N 42°24' W 070°38'0 0.0
2018-Apr-22 05:29N 42°24' W 070°38'0 0.0
2018-Apr-22 04:50N 42°24' W 070°38'0 0.0
2018-Apr-22 04:08N 42°24' W 070°38'0 0.0
2018-Apr-22 03:59N 42°24' W 070°38'0 0.2
2018-Apr-22 03:17N 42°24' W 070°38'0 0.1
2018-Apr-22 02:59N 42°24' W 070°38'0 0.1
2018-Apr-22 02:26N 42°24' W 070°38'0 0.0
2018-Apr-22 01:53N 42°24' W 070°38'0 0.0
2018-Apr-22 01:26N 42°24' W 070°39'0 0.0
2018-Apr-22 00:59N 42°24' W 070°39'0 0.0
2018-Apr-22 00:29N 42°24' W 070°39'0 0.0
2018-Apr-21 23:56N 42°24' W 070°39'0 0.0
2018-Apr-21 23:29N 42°24' W 070°39'0 0.0
2018-Apr-21 22:59N 42°24' W 070°39'0 0.0
2018-Apr-21 22:26N 42°24' W 070°39'0 0.0
2018-Apr-21 21:53N 42°24' W 070°39'0 0.1
2018-Apr-21 21:29N 42°24' W 070°39'0 0.1
2018-Apr-21 20:59N 42°24' W 070°39'0 0.1
2018-Apr-21 20:29N 42°24' W 070°39'0 0.0
2018-Apr-21 19:59N 42°24' W 070°39'0 0.0
2018-Apr-21 19:20N 42°24' W 070°39'0 0.1
2018-Apr-21 18:56N 42°24' W 070°39'0 0.1
2018-Apr-21 18:29N 42°24' W 070°39'0 0.2
2018-Apr-21 17:59N 42°24' W 070°39'0 0.0
2018-Apr-21 17:23N 42°24' W 070°39'0 0.0
2018-Apr-21 16:59N 42°24' W 070°39'0 0.0
2018-Apr-21 16:29N 42°24' W 070°39'0 0.1
2018-Apr-21 15:59N 42°24' W 070°39'0 0.1
2018-Apr-21 15:29N 42°24' W 070°38'0 0.8
2018-Apr-21 15:00N 42°24' W 070°38'0 0.2
2018-Apr-21 14:30N 42°24' W 070°38'0 0.3
2018-Apr-21 13:50N 42°24' W 070°38'0 0.0
2018-Apr-21 13:29N 42°24' W 070°38'0 0.0
2018-Apr-21 12:59N 42°24' W 070°38'0 0.0
2018-Apr-21 12:26N 42°24' W 070°38'0 0.0
2018-Apr-21 11:59N 42°24' W 070°38'0 0.0
2018-Apr-21 11:20N 42°24' W 070°38'0 0.0
2018-Apr-21 10:50N 42°24' W 070°38'0 0.0
2018-Apr-21 10:29N 42°24' W 070°38'0 0.0
2018-Apr-21 09:44N 42°24' W 070°38'0 0.0
2018-Apr-21 09:28N 42°24' W 070°38'0 0.0
2018-Apr-21 08:59N 42°24' W 070°38'0 0.0
2018-Apr-21 08:04N 42°24' W 070°38'0 0.0
2018-Apr-21 07:56N 42°24' W 070°38'0 0.1
2018-Apr-21 07:26N 42°24' W 070°38'0 0.0
2018-Apr-21 06:50N 42°24' W 070°38'0 0.0
2018-Apr-21 06:26N 42°24' W 070°38'0 0.0
2018-Apr-21 05:44N 42°24' W 070°39'0 0.0
2018-Apr-21 05:29N 42°24' W 070°39'0 0.0
2018-Apr-21 04:59N 42°24' W 070°38'0 0.0
2018-Apr-21 04:26N 42°24' W 070°38'0 0.0
2018-Apr-21 03:58N 42°24' W 070°38'0 0.0
2018-Apr-21 03:26N 42°24' W 070°38'0 0.0
2018-Apr-21 02:56N 42°24' W 070°38'0 0.0
2018-Apr-21 02:29N 42°24' W 070°38'0 0.0
2018-Apr-21 01:58N 42°24' W 070°38'0 0.0
2018-Apr-21 01:29N 42°24' W 070°38'0 0.0
2018-Apr-21 00:55N 42°24' W 070°38'0 0.0
2018-Apr-21 00:26N 42°24' W 070°38'0 0.0
2018-Apr-20 23:59N 42°24' W 070°38'0 0.0
2018-Apr-20 23:20N 42°24' W 070°38'0 0.0
2018-Apr-20 22:44N 42°24' W 070°38'0 0.0
2018-Apr-20 22:26N 42°24' W 070°38'0 0.0
2018-Apr-20 21:20N 42°24' W 070°38'0 0.1
2018-Apr-20 20:59N 42°24' W 070°38'0 0.0
2018-Apr-20 20:20N 42°24' W 070°39'0 0.0
2018-Apr-20 19:59N 42°24' W 070°38'0 0.0
2018-Apr-20 18:11N 42°24' W 070°38'0 0.0
2018-Apr-20 17:44N 42°24' W 070°38'0 0.0
2018-Apr-20 17:17N 42°24' W 070°38'0 0.0
2018-Apr-20 16:59N 42°24' W 070°38'0 0.0
2018-Apr-20 15:32N 42°24' W 070°38'0 0.0
2018-Apr-20 15:26N 42°24' W 070°38'0 0.0
2018-Apr-20 14:58N 42°24' W 070°38'0 0.0
2018-Apr-20 14:26N 42°24' W 070°38'0 0.0
2018-Apr-20 13:56N 42°24' W 070°38'0 0.0
2018-Apr-20 13:29N 42°24' W 070°38'0 0.0
2018-Apr-20 12:50N 42°24' W 070°38'0 0.0
2018-Apr-20 12:29N 42°24' W 070°38'0 0.0
2018-Apr-20 11:59N 42°24' W 070°38'0 0.0
2018-Apr-20 11:26N 42°24' W 070°38'0 0.0
2018-Apr-20 10:53N 42°24' W 070°38'0 0.0
2018-Apr-20 10:29N 42°24' W 070°38'0 0.0
2018-Apr-20 09:59N 42°24' W 070°38'0 0.0
2018-Apr-20 09:29N 42°24' W 070°38'0 0.0
2018-Apr-20 08:56N 42°24' W 070°38'0 0.0
2018-Apr-20 08:29N 42°24' W 070°38'0 0.0
2018-Apr-20 07:59N 42°24' W 070°38'0 0.0
2018-Apr-20 07:26N 42°24' W 070°38'0 0.0
2018-Apr-20 06:59N 42°24' W 070°38'0 0.0
2018-Apr-20 06:29N 42°24' W 070°38'0 0.0
2018-Apr-20 05:59N 42°24' W 070°38'0 0.0
2018-Apr-20 05:26N 42°24' W 070°38'0 0.0
2018-Apr-20 04:59N 42°24' W 070°39'0 0.0
2018-Apr-20 04:26N 42°24' W 070°39'0 0.0
2018-Apr-20 03:59N 42°24' W 070°38'0 0.0
2018-Apr-20 03:26N 42°24' W 070°38'0 0.0
2018-Apr-20 02:56N 42°24' W 070°38'0 0.0
2018-Apr-20 02:20N 42°24' W 070°38'0 0.1
2018-Apr-20 01:59N 42°24' W 070°38'0 0.1
2018-Apr-20 01:29N 42°24' W 070°38'0 0.0
2018-Apr-20 00:44N 42°24' W 070°38'0 0.0
2018-Apr-20 00:29N 42°24' W 070°38'0 0.0
2018-Apr-19 23:56N 42°24' W 070°38'0 0.0
2018-Apr-19 23:25N 42°24' W 070°38'0 0.1
2018-Apr-19 22:56N 42°24' W 070°38'0 0.0
2018-Apr-19 22:26N 42°24' W 070°38'0 0.0
2018-Apr-19 21:59N 42°24' W 070°38'0 0.0
2018-Apr-19 21:26N 42°24' W 070°38'0 0.2
2018-Apr-19 20:50N 42°24' W 070°38'0 0.2
2018-Apr-19 20:26N 42°24' W 070°39'0 0.1
2018-Apr-19 19:59N 42°24' W 070°39'0 0.0
2018-Apr-19 19:26N 42°24' W 070°39'0 0.0
2018-Apr-19 18:56N 42°24' W 070°39'0 0.0
2018-Apr-19 18:14N 42°24' W 070°39'0 0.0
2018-Apr-19 17:56N 42°24' W 070°39'0 0.0
2018-Apr-19 17:17N 42°24' W 070°39'0 0.0
2018-Apr-19 16:56N 42°24' W 070°39'0 0.0
2018-Apr-19 16:26N 42°24' W 070°39'0 0.1
2018-Apr-19 15:56N 42°24' W 070°39'0 0.1
2018-Apr-19 15:26N 42°24' W 070°38'0 0.1
2018-Apr-19 14:56N 42°24' W 070°38'0 0.1
2018-Apr-19 14:29N 42°24' W 070°38'0 0.0
2018-Apr-19 13:56N 42°24' W 070°38'0 0.0
2018-Apr-19 13:29N 42°24' W 070°38'0 0.2
2018-Apr-19 12:59N 42°24' W 070°38'0 0.1
2018-Apr-19 12:29N 42°24' W 070°38'0 0.0
2018-Apr-19 11:59N 42°24' W 070°38'0 0.1
2018-Apr-19 11:26N 42°24' W 070°38'0 0.1
2018-Apr-19 10:55N 42°24' W 070°38'0 0.1
2018-Apr-19 10:25N 42°24' W 070°38'0 0.0
2018-Apr-19 09:59N 42°24' W 070°38'0 0.0
2018-Apr-19 09:29N 42°24' W 070°38'0 0.0
2018-Apr-19 08:50N 42°24' W 070°38'0 0.0
2018-Apr-19 08:29N 42°24' W 070°38'0 0.0
2018-Apr-19 07:53N 42°24' W 070°38'0 0.2
2018-Apr-19 07:29N 42°24' W 070°38'0 0.1
2018-Apr-19 06:59N 42°24' W 070°38'0 0.0
2018-Apr-19 06:26N 42°24' W 070°38'0 0.1
2018-Apr-19 05:56N 42°24' W 070°38'0 0.1
2018-Apr-19 05:26N 42°24' W 070°38'0 0.0
2018-Apr-19 04:56N 42°24' W 070°38'0 0.0
2018-Apr-19 04:29N 42°24' W 070°38'0 0.1
2018-Apr-19 03:56N 42°24' W 070°38'0 0.0
2018-Apr-19 03:26N 42°24' W 070°38'0 0.0
2018-Apr-19 02:59N 42°24' W 070°38'0 0.0
2018-Apr-19 02:26N 42°24' W 070°38'0 0.0
2018-Apr-19 01:56N 42°24' W 070°38'0 0.0
2018-Apr-19 01:29N 42°24' W 070°38'0 0.0
2018-Apr-19 00:56N 42°24' W 070°38'0 0.0
2018-Apr-19 00:26N 42°24' W 070°38'0 0.1
2018-Apr-18 23:59N 42°24' W 070°38'0 0.0
2018-Apr-18 23:29N 42°24' W 070°38'0 0.0
2018-Apr-18 22:59N 42°24' W 070°38'0 0.0
2018-Apr-18 22:26N 42°24' W 070°38'0 0.0
2018-Apr-18 21:59N 42°24' W 070°38'0 0.5
2018-Apr-18 21:30N 42°24' W 070°38'0 0.6
2018-Apr-18 21:01N 42°24' W 070°38'0 0.3
2018-Apr-18 20:30N 42°24' W 070°38'1 1.7
2018-Apr-18 20:00N 42°25' W 070°38'0 0.9
2018-Apr-18 19:30N 42°24' W 070°38'0 0.8
2018-Apr-18 19:01N 42°24' W 070°38'1 1.1
2018-Apr-18 18:30N 42°24' W 070°38'1 2.7
2018-Apr-18 18:00N 42°24' W 070°39'5 9.7
2018-Apr-18 17:30N 42°24' W 070°46'5 8.8
2018-Apr-18 16:59N 42°23' W 070°52'5 9.6
2018-Apr-18 16:29N 42°20' W 070°57'4 8.1
2018-Apr-18 16:00N 42°21' W 071°02'1 2.6
2018-Apr-18 15:26N 42°23' W 071°03'0 0.0
2018-Apr-18 14:59N 42°23' W 071°03'0 0.0
2018-Apr-18 14:28N 42°23' W 071°03'0 0.0
2018-Apr-18 13:59N 42°23' W 071°03'0 0.0
2018-Apr-18 13:28N 42°23' W 071°03'0 0.0
2018-Apr-18 12:59N 42°23' W 071°03'0 0.0
2018-Apr-18 12:25N 42°23' W 071°03'0 0.0
2018-Apr-18 11:59N 42°23' W 071°03'0 0.0
2018-Apr-18 11:29N 42°23' W 071°03'0 0.0
2018-Apr-18 10:58N 42°23' W 071°03'0 0.0
2018-Apr-18 10:25N 42°23' W 071°03'0 0.0
2018-Apr-18 10:00N 42°23' W 071°03'0 0.0
2018-Apr-18 09:30N 42°23' W 071°03'0 0.0
2018-Apr-18 09:00N 42°23' W 071°03'0 0.0
2018-Apr-18 08:29N 42°23' W 071°03'0 0.0
2018-Apr-18 07:58N 42°23' W 071°03'0 0.0
2018-Apr-18 07:28N 42°23' W 071°03'0 0.0
2018-Apr-18 06:58N 42°23' W 071°03'0 0.0
2018-Apr-18 06:30N 42°23' W 071°03'0 0.0
2018-Apr-18 05:57N 42°23' W 071°03'0 0.0
2018-Apr-18 05:27N 42°23' W 071°03'0 0.0
2018-Apr-18 04:58N 42°23' W 071°03'0 0.0
2018-Apr-18 04:28N 42°23' W 071°03'0 0.0
2018-Apr-18 03:59N 42°23' W 071°03'0 0.0
2018-Apr-18 03:28N 42°23' W 071°03'0 0.0
2018-Apr-18 03:00N 42°23' W 071°03'0 0.0
2018-Apr-18 02:29N 42°23' W 071°03'0 0.0
2018-Apr-18 01:58N 42°23' W 071°03'0 0.0
2018-Apr-18 01:28N 42°23' W 071°03'0 0.0
2018-Apr-18 00:58N 42°23' W 071°03'0 0.0
2018-Apr-18 00:28N 42°23' W 071°03'0 0.0
2018-Apr-17 23:59N 42°23' W 071°03'0 0.0
2018-Apr-17 23:28N 42°23' W 071°03'0 0.0
2018-Apr-17 22:56N 42°23' W 071°03'0 0.0
2018-Apr-17 22:28N 42°23' W 071°03'0 0.0
2018-Apr-17 21:59N 42°23' W 071°03'0 0.0
2018-Apr-17 21:26N 42°23' W 071°03'0 0.0
2018-Apr-17 20:58N 42°23' W 071°03'0 0.0
2018-Apr-17 20:29N 42°23' W 071°03'0 0.0
2018-Apr-17 19:58N 42°23' W 071°03'0 0.0
2018-Apr-17 19:29N 42°23' W 071°03'0 0.1
2018-Apr-17 18:59N 42°23' W 071°03'0 0.1
2018-Apr-17 18:28N 42°23' W 071°03'0 0.0
2018-Apr-17 17:59N 42°23' W 071°03'0 0.0
2018-Apr-17 17:29N 42°23' W 071°03'0 0.0
2018-Apr-17 16:59N 42°23' W 071°03'0 0.0
2018-Apr-17 16:28N 42°23' W 071°03'0 0.0
2018-Apr-17 15:58N 42°23' W 071°03'0 0.0
2018-Apr-17 15:30N 42°23' W 071°03'0 0.0
2018-Apr-17 14:59N 42°23' W 071°03'0 0.0
2018-Apr-17 14:28N 42°23' W 071°03'0 0.0
2018-Apr-17 13:55N 42°23' W 071°03'0 0.0
2018-Apr-17 13:26N 42°23' W 071°03'0 0.0
2018-Apr-17 12:58N 42°23' W 071°03'0 0.0
2018-Apr-17 12:29N 42°23' W 071°03'0 0.0
2018-Apr-17 11:58N 42°23' W 071°03'0 0.0
2018-Apr-17 11:26N 42°23' W 071°03'0 0.0
2018-Apr-17 10:59N 42°23' W 071°03'0 0.0
2018-Apr-17 10:28N 42°23' W 071°03'0 0.0
2018-Apr-17 09:58N 42°23' W 071°03'0 0.0
2018-Apr-17 09:28N 42°23' W 071°03'0 0.0
2018-Apr-17 08:58N 42°23' W 071°03'0 0.0
2018-Apr-17 08:29N 42°23' W 071°03'0 0.0
2018-Apr-17 07:59N 42°23' W 071°03'0 0.0
2018-Apr-17 07:28N 42°23' W 071°03'0 0.0
2018-Apr-17 06:58N 42°23' W 071°03'0 0.0
2018-Apr-17 06:28N 42°23' W 071°03'0 0.0
2018-Apr-17 06:00N 42°23' W 071°03'0 0.0
2018-Apr-17 05:29N 42°23' W 071°03'0 0.0
2018-Apr-17 04:59N 42°23' W 071°03'0 0.0
2018-Apr-17 04:28N 42°23' W 071°03'0 0.0
2018-Apr-17 03:58N 42°23' W 071°03'0 0.0
2018-Apr-17 03:28N 42°23' W 071°03'0 0.0
2018-Apr-17 02:58N 42°23' W 071°03'0 0.0
2018-Apr-17 02:28N 42°23' W 071°03'0 0.0
2018-Apr-17 01:58N 42°23' W 071°03'0 0.0
2018-Apr-17 01:28N 42°23' W 071°03'0 0.0
2018-Apr-17 00:58N 42°23' W 071°03'0 0.0
2018-Apr-17 00:28N 42°23' W 071°03'0 0.0
2018-Apr-16 23:58N 42°23' W 071°03'0 0.0
2018-Apr-16 23:28N 42°23' W 071°03'0 0.0
2018-Apr-16 22:58N 42°23' W 071°03'0 0.0
2018-Apr-16 22:28N 42°23' W 071°03'0 0.0
2018-Apr-16 21:58N 42°23' W 071°03'0 0.0
2018-Apr-16 21:28N 42°23' W 071°03'0 0.0
2018-Apr-16 20:58N 42°23' W 071°03'0 0.0
2018-Apr-16 20:28N 42°23' W 071°03'0 0.0
2018-Apr-16 19:58N 42°23' W 071°03'0 0.0
2018-Apr-16 19:29N 42°23' W 071°03'0 0.0
2018-Apr-16 18:58N 42°23' W 071°03'0 0.0
2018-Apr-16 18:28N 42°23' W 071°03'0 0.0
2018-Apr-16 17:58N 42°23' W 071°03'0 0.0
2018-Apr-16 17:28N 42°23' W 071°03'0 0.0
2018-Apr-16 16:58N 42°23' W 071°03'0 0.0
2018-Apr-16 16:28N 42°23' W 071°03'0 0.0
2018-Apr-16 15:58N 42°23' W 071°03'0 0.0
2018-Apr-16 15:28N 42°23' W 071°03'0 0.0
2018-Apr-16 14:59N 42°23' W 071°03'0 0.0
2018-Apr-16 14:28N 42°23' W 071°03'0 0.0
2018-Apr-16 13:58N 42°23' W 071°03'0 0.0
2018-Apr-16 13:28N 42°23' W 071°03'0 0.0
2018-Apr-16 12:58N 42°23' W 071°03'0 0.0
2018-Apr-16 12:28N 42°23' W 071°03'0 0.0
2018-Apr-16 11:59N 42°23' W 071°03'0 0.0
2018-Apr-16 11:28N 42°23' W 071°03'0 0.0
2018-Apr-16 10:59N 42°23' W 071°03'0 0.0
2018-Apr-16 10:29N 42°23' W 071°03'0 0.0
2018-Apr-16 09:58N 42°23' W 071°03'0 0.0
2018-Apr-16 09:29N 42°23' W 071°03'0 0.0
2018-Apr-16 08:59N 42°23' W 071°03'0 0.0
2018-Apr-16 08:29N 42°23' W 071°03'0 0.0
2018-Apr-16 07:59N 42°23' W 071°03'  

Dump ship's entire track history